Roan Cliffs, Utah
Current Conditions -  °F | °C
As of 8:53 PM on Monday 22 Dec 2014 (Local Time) from KPUC Reporting Station
Clear Clear  
Wind Chill: 23°   Ceiling: Unl
Heat Index: 34°   Visibility: 10mi
Dew Point: 17°   Wind: 20mph
Humidity: 50%   Direction: 320°NW
Pressure: 29.97"   Gusts: 30mph
Location:  39.63°N, 110.33°W
Report Text: KPUC 230353Z AUTO 32017G26KT 10SM CLR 01/M08 A2997 RMK AO2 PK WND 34030/0318 SLP168 T00111083
Loading
Personal Weather Stations






























Interactive Weather Map New forecast layout! Learn more

10-Day Weather Forecast

Advertisements
Track Severe Weather on mobile